createdAt,value
2023-08-12T00:00:09.986Z,20.97
2023-08-12T00:01:58.368Z,20.97
2023-08-12T00:02:36.393Z,20.21
2023-08-12T00:05:03.004Z,20.94
2023-08-12T00:06:58.369Z,20.94
2023-08-12T00:07:29.444Z,20.61
2023-08-12T00:09:57.098Z,21.02
2023-08-12T00:11:58.376Z,21.02
2023-08-12T00:12:23.497Z,21.00
2023-08-12T00:14:50.224Z,20.98
2023-08-12T00:16:58.519Z,20.98
2023-08-12T00:17:16.679Z,20.95
2023-08-12T00:19:43.269Z,20.96
2023-08-12T00:21:58.385Z,20.96
2023-08-12T00:22:09.746Z,20.49
2023-08-12T00:24:36.170Z,20.95
2023-08-12T00:27:00.164Z,20.95
2023-08-12T00:27:07.597Z,20.54
2023-08-12T00:29:38.048Z,20.89
2023-08-12T00:31:58.378Z,20.89
2023-08-12T00:32:04.997Z,20.64
2023-08-12T00:34:31.439Z,20.15
2023-08-12T00:36:57.887Z,20.97
2023-08-12T00:36:58.556Z,20.97
2023-08-12T00:39:24.487Z,20.74
2023-08-12T00:41:50.906Z,20.83
2023-08-12T00:41:58.375Z,20.83
2023-08-12T00:44:17.454Z,20.60
2023-08-12T00:46:44.704Z,20.54
2023-08-12T00:46:58.624Z,20.54
2023-08-12T00:49:12.880Z,20.51
2023-08-12T00:51:42.503Z,20.58
2023-08-12T00:51:58.393Z,20.58
2023-08-12T00:54:14.024Z,20.55
2023-08-12T00:56:40.703Z,20.19
2023-08-12T00:56:58.370Z,20.19
2023-08-12T00:59:09.979Z,20.42
2023-08-12T01:01:39.155Z,20.35
2023-08-12T01:01:58.382Z,20.35
2023-08-12T01:04:07.982Z,20.45
2023-08-12T01:06:34.933Z,20.48
2023-08-12T01:06:58.388Z,20.48
2023-08-12T01:09:02.598Z,20.57
2023-08-12T01:11:40.338Z,20.55
2023-08-12T01:11:58.397Z,20.55
2023-08-12T01:14:43.191Z,20.63
2023-08-12T01:16:58.531Z,20.63
2023-08-12T01:17:12.646Z,20.44
2023-08-12T01:19:41.122Z,20.19
2023-08-12T01:21:58.407Z,20.19
2023-08-12T01:22:10.974Z,20.68
2023-08-12T01:24:43.106Z,20.46
2023-08-12T01:26:58.408Z,20.46
2023-08-12T01:27:11.470Z,20.55
2023-08-12T01:29:42.752Z,20.72
2023-08-12T01:31:58.403Z,20.72
2023-08-12T01:32:38.358Z,20.32
2023-08-12T01:35:11.746Z,20.66
2023-08-12T01:36:58.420Z,20.66
2023-08-12T01:37:40.314Z,20.20
2023-08-12T01:40:10.061Z,20.53
2023-08-12T01:41:58.417Z,20.53
2023-08-12T01:42:37.868Z,20.48
2023-08-12T01:45:04.741Z,20.12
2023-08-12T01:46:58.480Z,20.12
2023-08-12T01:47:31.300Z,20.22
2023-08-12T01:49:57.763Z,20.53
2023-08-12T01:51:58.426Z,20.53
2023-08-12T01:52:24.256Z,20.09
2023-08-12T01:54:50.881Z,20.48
2023-08-12T01:56:58.422Z,20.48
2023-08-12T01:57:17.601Z,20.33
2023-08-12T01:59:47.267Z,20.12
2023-08-12T02:01:58.472Z,20.12
2023-08-12T02:02:14.069Z,20.34
2023-08-12T02:04:41.425Z,20.18
2023-08-12T02:06:58.434Z,20.18
2023-08-12T02:07:07.825Z,20.39
2023-08-12T02:09:34.317Z,20.41
2023-08-12T02:11:58.430Z,20.41
2023-08-12T02:12:00.908Z,20.44
2023-08-12T02:14:27.317Z,20.33
2023-08-12T02:16:53.775Z,20.30
2023-08-12T02:16:58.513Z,20.30
2023-08-12T02:19:20.526Z,20.30
2023-08-12T02:21:47.055Z,20.27
2023-08-12T02:21:58.388Z,20.27
2023-08-12T02:24:13.400Z,20.23
2023-08-12T02:26:39.986Z,20.16
2023-08-12T02:26:58.405Z,20.16
2023-08-12T02:29:06.676Z,20.02
2023-08-12T02:31:33.127Z,20.32
2023-08-12T02:31:58.435Z,20.32
2023-08-12T02:33:59.554Z,20.12
2023-08-12T02:36:26.845Z,19.93
2023-08-12T02:36:58.450Z,19.93
2023-08-12T02:38:53.268Z,20.33
2023-08-12T02:41:19.738Z,20.40
2023-08-12T02:41:58.409Z,20.40
2023-08-12T02:43:46.354Z,20.42
2023-08-12T02:46:14.008Z,20.39
2023-08-12T02:46:58.623Z,20.39
2023-08-12T02:48:40.778Z,20.02
2023-08-12T02:51:07.702Z,20.41
2023-08-12T02:51:58.868Z,20.41
2023-08-12T02:53:37.277Z,20.43
2023-08-12T02:56:07.221Z,20.42
2023-08-12T02:57:00.977Z,20.42
2023-08-12T02:58:43.004Z,20.29
2023-08-12T03:01:17.271Z,20.40
2023-08-12T03:02:01.180Z,20.40
2023-08-12T03:03:44.319Z,19.97
2023-08-12T03:06:20.672Z,20.40
2023-08-12T03:06:58.404Z,20.40
2023-08-12T03:08:47.321Z,20.38
2023-08-12T03:11:16.337Z,20.08
2023-08-12T03:11:58.444Z,20.08
2023-08-12T03:13:46.234Z,20.27
2023-08-12T03:16:25.263Z,20.11
2023-08-12T03:16:58.556Z,20.11
2023-08-12T03:18:53.943Z,19.91
2023-08-12T03:21:20.321Z,19.70
2023-08-12T03:21:58.444Z,19.70
2023-08-12T03:23:48.979Z,20.10
2023-08-12T03:26:15.710Z,20.12
2023-08-12T03:26:58.445Z,20.12
2023-08-12T03:28:49.107Z,20.15
2023-08-12T03:31:15.861Z,19.77
2023-08-12T03:31:58.477Z,19.77
2023-08-12T03:33:42.441Z,20.19
2023-08-12T03:36:10.692Z,19.16
2023-08-12T03:37:00.812Z,19.16
2023-08-12T03:38:37.222Z,20.18
2023-08-12T03:41:07.132Z,20.18
2023-08-12T03:42:02.085Z,20.18
2023-08-12T03:43:34.780Z,20.16
2023-08-12T03:46:01.215Z,20.15
2023-08-12T03:46:58.443Z,20.15
2023-08-12T03:48:28.044Z,20.09
2023-08-12T03:50:54.802Z,20.08
2023-08-12T03:51:58.413Z,20.08
2023-08-12T03:53:21.376Z,20.04
2023-08-12T03:55:51.024Z,20.01
2023-08-12T03:56:58.430Z,20.01
2023-08-12T03:58:18.258Z,19.68
2023-08-12T04:00:47.560Z,19.60
2023-08-12T04:01:58.441Z,19.60
2023-08-12T04:03:14.594Z,19.85
2023-08-12T04:05:53.024Z,19.48
2023-08-12T04:06:58.426Z,19.48
2023-08-12T04:08:25.054Z,19.80
2023-08-12T04:10:52.509Z,19.71
2023-08-12T04:11:58.433Z,19.71
2023-08-12T04:13:19.196Z,19.76
2023-08-12T04:15:50.763Z,19.75
2023-08-12T04:16:58.602Z,19.75
2023-08-12T04:18:21.672Z,19.76
2023-08-12T04:20:55.692Z,19.77
2023-08-12T04:21:58.436Z,19.77
2023-08-12T04:23:23.454Z,19.82
2023-08-12T04:25:50.366Z,19.82
2023-08-12T04:26:58.451Z,19.82
2023-08-12T04:28:17.287Z,19.81
2023-08-12T04:30:45.225Z,19.90
2023-08-12T04:31:58.434Z,19.90
2023-08-12T04:33:14.007Z,19.82
2023-08-12T04:35:41.086Z,19.96
2023-08-12T04:36:58.445Z,19.96
2023-08-12T04:38:08.014Z,19.99
2023-08-12T04:40:34.677Z,20.04
2023-08-12T04:41:58.454Z,20.04
2023-08-12T04:43:01.212Z,20.09
2023-08-12T04:45:28.202Z,20.09
2023-08-12T04:46:58.525Z,20.09
2023-08-12T04:47:55.013Z,20.15
2023-08-12T04:50:21.506Z,19.82
2023-08-12T04:51:58.477Z,19.82
2023-08-12T04:52:47.927Z,20.26
2023-08-12T04:55:14.708Z,20.35
2023-08-12T04:56:58.454Z,20.35
2023-08-12T04:57:41.067Z,20.51
2023-08-12T05:00:10.967Z,20.45
2023-08-12T05:02:17.481Z,20.45
2023-08-12T05:02:37.392Z,20.29
2023-08-12T05:05:06.442Z,20.60
2023-08-12T05:06:58.455Z,20.60
2023-08-12T05:07:34.893Z,20.61
2023-08-12T05:10:01.485Z,20.47
2023-08-12T05:11:58.444Z,20.47
2023-08-12T05:12:30.259Z,19.33
2023-08-12T05:14:56.934Z,20.45
2023-08-12T05:16:58.556Z,20.45
2023-08-12T05:17:23.362Z,20.43
2023-08-12T05:19:50.045Z,20.44
2023-08-12T05:21:58.468Z,20.44
2023-08-12T05:22:17.073Z,20.39
2023-08-12T05:24:43.448Z,20.41
2023-08-12T05:26:58.449Z,20.41
2023-08-12T05:27:09.810Z,20.47
2023-08-12T05:29:36.243Z,20.10
2023-08-12T05:31:58.487Z,20.10
2023-08-12T05:32:02.675Z,20.42
2023-08-12T05:34:29.149Z,19.67
2023-08-12T05:36:57.916Z,19.57
2023-08-12T05:36:58.438Z,19.57
2023-08-12T05:39:24.474Z,20.30
2023-08-12T05:41:53.032Z,20.40
2023-08-12T05:41:58.454Z,20.40
2023-08-12T05:44:21.925Z,20.01
2023-08-12T05:46:48.337Z,20.15
2023-08-12T05:46:58.457Z,20.15
2023-08-12T05:49:14.706Z,19.96
2023-08-12T05:51:42.534Z,20.41
2023-08-12T05:51:58.448Z,20.41
2023-08-12T05:54:08.990Z,20.39
2023-08-12T05:56:35.459Z,20.34
2023-08-12T05:56:58.477Z,20.34
2023-08-12T05:59:02.051Z,20.23
2023-08-12T06:01:28.534Z,20.21
2023-08-12T06:01:58.453Z,20.21
2023-08-12T06:03:54.958Z,20.21
2023-08-12T06:06:21.467Z,20.15
2023-08-12T06:06:58.466Z,20.15
2023-08-12T06:08:47.948Z,20.07
2023-08-12T06:11:14.470Z,20.02
2023-08-12T06:11:58.481Z,20.02
2023-08-12T06:13:40.955Z,20.01
2023-08-12T06:16:07.364Z,19.99
2023-08-12T06:16:59.518Z,19.99
2023-08-12T06:18:34.235Z,19.98
2023-08-12T06:21:00.643Z,20.02
2023-08-12T06:21:58.511Z,20.02
2023-08-12T06:23:27.918Z,19.92
2023-08-12T06:25:54.359Z,19.50
2023-08-12T06:26:58.558Z,19.50
2023-08-12T06:28:20.752Z,19.87
2023-08-12T06:30:49.127Z,19.37
2023-08-12T06:31:58.472Z,19.37
2023-08-12T06:33:16.296Z,19.83
2023-08-12T06:35:43.074Z,19.84
2023-08-12T06:36:58.468Z,19.84
2023-08-12T06:38:11.146Z,19.84
2023-08-12T06:40:39.420Z,19.61
2023-08-12T06:41:58.460Z,19.61
2023-08-12T06:43:05.942Z,19.97
2023-08-12T06:45:32.444Z,20.07
2023-08-12T06:46:58.484Z,20.07
2023-08-12T06:47:58.901Z,20.18
2023-08-12T06:50:25.433Z,20.22
2023-08-12T06:51:58.464Z,20.22
2023-08-12T06:52:52.048Z,20.31
2023-08-12T06:55:18.479Z,20.48
2023-08-12T06:56:58.462Z,20.48
2023-08-12T06:57:44.972Z,19.92
2023-08-12T07:00:11.838Z,21.19
2023-08-12T07:01:58.489Z,21.19
2023-08-12T07:02:38.277Z,21.22
2023-08-12T07:05:05.239Z,21.46
2023-08-12T07:06:58.482Z,21.46
2023-08-12T07:07:31.908Z,20.67
2023-08-12T07:09:58.419Z,21.25
2023-08-12T07:11:58.484Z,21.25
2023-08-12T07:12:25.008Z,21.38
2023-08-12T07:14:51.363Z,21.47
2023-08-12T07:16:58.501Z,21.47
2023-08-12T07:17:17.903Z,21.47
2023-08-12T07:19:44.372Z,21.67
2023-08-12T07:21:58.474Z,21.67
2023-08-12T07:22:11.081Z,21.60
2023-08-12T07:24:37.798Z,21.98
2023-08-12T07:26:58.472Z,21.98
2023-08-12T07:27:06.754Z,21.61
2023-08-12T07:29:34.171Z,22.08
2023-08-12T07:31:58.461Z,22.08
2023-08-12T07:32:00.751Z,22.08
2023-08-12T07:34:29.404Z,22.06
2023-08-12T07:36:57.825Z,21.97
2023-08-12T07:36:58.475Z,21.97
2023-08-12T07:39:24.227Z,21.97
2023-08-12T07:41:50.608Z,21.69
2023-08-12T07:41:58.459Z,21.69
2023-08-12T07:44:17.062Z,22.01
2023-08-12T07:46:43.562Z,21.90
2023-08-12T07:46:58.507Z,21.90
2023-08-12T07:49:10.144Z,20.94
2023-08-12T07:51:36.517Z,21.94
2023-08-12T07:51:58.467Z,21.94
2023-08-12T07:54:02.881Z,21.96
2023-08-12T07:56:29.319Z,21.90
2023-08-12T07:56:58.519Z,21.90
2023-08-12T07:58:55.775Z,21.96
2023-08-12T08:01:22.158Z,22.04
2023-08-12T08:01:58.502Z,22.04
2023-08-12T08:03:51.600Z,22.16
2023-08-12T08:06:17.969Z,22.22
2023-08-12T08:06:58.484Z,22.22
2023-08-12T08:08:46.659Z,22.16
2023-08-12T08:11:13.109Z,22.22
2023-08-12T08:11:58.533Z,22.22
2023-08-12T08:13:39.543Z,22.28
2023-08-12T08:16:05.987Z,21.92
2023-08-12T08:16:58.976Z,21.92
2023-08-12T08:18:32.429Z,22.92
2023-08-12T08:20:59.054Z,23.26
2023-08-12T08:21:58.507Z,23.26
2023-08-12T08:23:31.554Z,23.35
2023-08-12T08:25:57.984Z,23.72
2023-08-12T08:26:58.509Z,23.72
2023-08-12T08:28:24.526Z,23.99
2023-08-12T08:30:51.093Z,23.86
2023-08-12T08:31:58.472Z,23.86
2023-08-12T08:33:17.566Z,23.50
2023-08-12T08:35:44.013Z,23.35
2023-08-12T08:36:58.465Z,23.35
2023-08-12T08:38:10.533Z,23.30
2023-08-12T08:40:37.305Z,23.18
2023-08-12T08:41:58.468Z,23.18
2023-08-12T08:43:07.581Z,23.06
2023-08-12T08:45:37.063Z,23.11
2023-08-12T08:46:58.490Z,23.11
2023-08-12T08:48:04.169Z,22.96
2023-08-12T08:50:34.621Z,22.86
2023-08-12T08:51:58.477Z,22.86
2023-08-12T08:53:02.515Z,22.74
2023-08-12T08:55:28.936Z,22.81
2023-08-12T08:57:00.736Z,22.81
2023-08-12T08:58:02.267Z,22.47
2023-08-12T09:00:29.426Z,21.89
2023-08-12T09:02:00.092Z,21.89
2023-08-12T09:02:58.378Z,22.27
2023-08-12T09:05:26.641Z,22.88
2023-08-12T09:06:58.472Z,22.88
2023-08-12T09:07:54.876Z,22.98
2023-08-12T09:10:22.390Z,22.86
2023-08-12T09:11:58.493Z,22.86
2023-08-12T09:12:49.216Z,23.30
2023-08-12T09:15:17.638Z,23.60
2023-08-12T09:16:58.548Z,23.60
2023-08-12T09:17:44.095Z,23.84
2023-08-12T09:20:12.940Z,24.21
2023-08-12T09:21:58.585Z,24.21
2023-08-12T09:22:44.056Z,23.53
2023-08-12T09:25:11.328Z,24.71
2023-08-12T09:26:58.477Z,24.71
2023-08-12T09:27:39.277Z,25.05
2023-08-12T09:30:08.933Z,25.14
2023-08-12T09:31:58.549Z,25.14
2023-08-12T09:32:35.663Z,25.22
2023-08-12T09:35:04.182Z,25.26
2023-08-12T09:36:58.474Z,25.26
2023-08-12T09:37:30.877Z,25.02
2023-08-12T09:39:57.626Z,24.49
2023-08-12T09:41:58.478Z,24.49
2023-08-12T09:42:24.233Z,24.40
2023-08-12T09:44:50.684Z,24.47
2023-08-12T09:46:58.457Z,24.47
2023-08-12T09:47:17.147Z,24.28
2023-08-12T09:49:43.613Z,24.26
2023-08-12T09:51:58.476Z,24.26
2023-08-12T09:52:10.717Z,24.40
2023-08-12T09:54:37.568Z,24.45
2023-08-12T09:56:58.507Z,24.45
2023-08-12T09:57:07.318Z,24.78
2023-08-12T09:59:36.210Z,24.21
2023-08-12T10:01:58.472Z,24.21
2023-08-12T10:02:08.361Z,24.29
2023-08-12T10:04:45.761Z,24.08
2023-08-12T10:06:58.496Z,24.08
2023-08-12T10:07:15.836Z,24.36
2023-08-12T10:09:42.928Z,24.33
2023-08-12T10:11:58.520Z,24.33
2023-08-12T10:12:10.648Z,23.83
2023-08-12T10:14:38.082Z,23.80
2023-08-12T10:17:05.211Z,23.80
2023-08-12T10:17:06.374Z,24.29
2023-08-12T10:19:33.567Z,24.29
2023-08-12T10:21:58.468Z,24.29
2023-08-12T10:22:03.068Z,24.03
2023-08-12T10:24:34.823Z,23.91
2023-08-12T10:26:58.594Z,23.91
2023-08-12T10:27:02.336Z,23.88
2023-08-12T10:29:31.913Z,23.96
2023-08-12T10:31:58.676Z,24.24
2023-08-12T10:31:58.893Z,24.24
2023-08-12T10:34:25.929Z,24.15
2023-08-12T10:37:02.646Z,24.45
2023-08-12T10:37:04.318Z,24.45
2023-08-12T10:39:33.126Z,24.51
2023-08-12T10:42:00.632Z,24.34
2023-08-12T10:42:00.794Z,24.34
2023-08-12T10:44:39.585Z,24.36
2023-08-12T10:46:58.615Z,24.36
2023-08-12T10:47:13.680Z,23.98
2023-08-12T10:49:44.860Z,23.52
2023-08-12T10:51:58.485Z,23.52
2023-08-12T10:52:31.013Z,23.62
2023-08-12T10:55:37.380Z,23.36
2023-08-12T10:56:58.509Z,23.36
2023-08-12T10:58:09.677Z,23.16
2023-08-12T11:00:36.352Z,23.01
2023-08-12T11:01:58.474Z,23.01
2023-08-12T11:03:07.201Z,22.56
2023-08-12T11:05:39.590Z,22.52
2023-08-12T11:06:58.484Z,22.52
2023-08-12T11:08:07.259Z,22.43
2023-08-12T11:10:35.958Z,22.35
2023-08-12T11:11:58.512Z,22.35
2023-08-12T11:13:04.183Z,22.31
2023-08-12T11:15:47.268Z,21.91
2023-08-12T11:16:58.576Z,21.91
2023-08-12T11:18:17.275Z,22.62
2023-08-12T11:20:43.905Z,22.91
2023-08-12T11:21:58.508Z,22.91
2023-08-12T11:23:11.062Z,23.24
2023-08-12T11:25:39.749Z,23.12
2023-08-12T11:26:58.509Z,23.12
2023-08-12T11:28:09.282Z,23.94
2023-08-12T11:30:36.044Z,24.06
2023-08-12T11:31:58.500Z,24.06
2023-08-12T11:33:04.129Z,24.23
2023-08-12T11:35:30.753Z,24.72
2023-08-12T11:36:58.522Z,24.72
2023-08-12T11:37:58.231Z,24.95
2023-08-12T11:40:27.053Z,25.30
2023-08-12T11:41:58.524Z,25.30
2023-08-12T11:42:54.762Z,25.08
2023-08-12T11:45:25.954Z,25.02
2023-08-12T11:46:58.485Z,25.02
2023-08-12T11:47:56.834Z,25.51
2023-08-12T11:50:26.489Z,25.76
2023-08-12T11:51:58.521Z,25.76
2023-08-12T11:52:57.305Z,26.17
2023-08-12T11:55:24.383Z,25.95
2023-08-12T11:56:58.494Z,25.95
2023-08-12T11:57:52.997Z,25.27
2023-08-12T12:00:22.062Z,25.27
2023-08-12T12:01:58.514Z,25.27
2023-08-12T12:02:52.590Z,25.58
2023-08-12T12:05:24.527Z,25.74
2023-08-12T12:06:58.511Z,25.74
2023-08-12T12:07:52.349Z,25.77
2023-08-12T12:10:31.031Z,25.80
2023-08-12T12:11:58.508Z,25.80
2023-08-12T12:13:01.129Z,25.96
2023-08-12T12:15:27.571Z,25.76
2023-08-12T12:16:58.597Z,25.76
2023-08-12T12:17:56.498Z,25.76
2023-08-12T12:20:23.141Z,25.79
2023-08-12T12:21:58.513Z,25.79
2023-08-12T12:22:50.172Z,26.50
2023-08-12T12:25:20.965Z,26.46
2023-08-12T12:26:58.497Z,26.46
2023-08-12T12:27:47.976Z,26.74
2023-08-12T12:30:15.605Z,27.09
2023-08-12T12:31:58.518Z,27.09
2023-08-12T12:32:42.286Z,27.21
2023-08-12T12:35:09.032Z,26.26
2023-08-12T12:36:58.503Z,26.26
2023-08-12T12:37:36.261Z,25.80
2023-08-12T12:40:04.147Z,25.90
2023-08-12T12:41:58.579Z,25.90
2023-08-12T12:42:31.215Z,25.31
2023-08-12T12:44:59.713Z,25.20
2023-08-12T12:46:58.511Z,25.20
2023-08-12T12:47:26.239Z,24.78
2023-08-12T12:49:52.645Z,24.40
2023-08-12T12:51:58.499Z,24.40
2023-08-12T12:52:19.079Z,23.79
2023-08-12T12:54:45.474Z,23.57
2023-08-12T12:56:58.513Z,23.57
2023-08-12T12:57:11.877Z,23.09
2023-08-12T12:59:38.246Z,22.83
2023-08-12T13:01:58.560Z,22.83
2023-08-12T13:02:04.653Z,22.65
2023-08-12T13:04:31.111Z,23.22
2023-08-12T13:06:57.584Z,23.61
2023-08-12T13:06:58.503Z,23.61
2023-08-12T13:09:24.018Z,23.78
2023-08-12T13:11:50.483Z,23.73
2023-08-12T13:11:58.529Z,23.73
2023-08-12T13:14:20.012Z,24.09
2023-08-12T13:16:46.693Z,23.94
2023-08-12T13:16:58.617Z,23.94
2023-08-12T13:19:13.094Z,23.80
2023-08-12T13:21:39.460Z,23.83
2023-08-12T13:21:58.502Z,23.83
2023-08-12T13:24:06.360Z,23.93
2023-08-12T13:26:32.722Z,23.93
2023-08-12T13:27:00.284Z,23.93
2023-08-12T13:28:59.165Z,23.87
2023-08-12T13:31:26.384Z,23.81
2023-08-12T13:31:58.518Z,23.81
2023-08-12T13:33:53.088Z,24.13
2023-08-12T13:36:19.676Z,24.35
2023-08-12T13:36:58.501Z,24.35
2023-08-12T13:38:46.114Z,24.82
2023-08-12T13:41:12.660Z,24.31
2023-08-12T13:41:58.541Z,24.31
2023-08-12T13:43:38.998Z,24.65
2023-08-12T13:46:05.585Z,24.64
2023-08-12T13:46:58.506Z,24.64
2023-08-12T13:48:32.055Z,24.54
2023-08-12T13:51:01.077Z,24.67
2023-08-12T13:51:59.585Z,24.67
2023-08-12T13:53:28.147Z,24.58
2023-08-12T13:55:54.681Z,24.96
2023-08-12T13:56:58.500Z,24.96
2023-08-12T13:58:21.081Z,24.81
2023-08-12T14:00:47.715Z,24.95
2023-08-12T14:01:58.523Z,24.95
2023-08-12T14:03:14.712Z,24.63
2023-08-12T14:05:41.248Z,24.57
2023-08-12T14:06:58.534Z,24.57
2023-08-12T14:08:07.877Z,24.66
2023-08-12T14:10:34.340Z,24.75
2023-08-12T14:11:58.525Z,24.75
2023-08-12T14:13:01.199Z,24.75
2023-08-12T14:15:27.633Z,24.82
2023-08-12T14:16:58.642Z,24.82
2023-08-12T14:17:54.094Z,24.93
2023-08-12T14:20:20.537Z,24.59
2023-08-12T14:21:58.514Z,24.59
2023-08-12T14:22:47.044Z,24.96
2023-08-12T14:25:13.876Z,25.12
2023-08-12T14:26:58.530Z,25.12
2023-08-12T14:27:40.749Z,24.77
2023-08-12T14:30:07.961Z,24.59
2023-08-12T14:31:58.533Z,24.59
2023-08-12T14:32:34.540Z,24.79
2023-08-12T14:35:00.930Z,25.14
2023-08-12T14:36:58.515Z,25.14
2023-08-12T14:37:28.878Z,25.33
2023-08-12T14:39:55.602Z,25.31
2023-08-12T14:41:58.509Z,25.31
2023-08-12T14:42:22.031Z,25.66
2023-08-12T14:44:50.818Z,25.49
2023-08-12T14:46:58.530Z,25.49
2023-08-12T14:47:17.201Z,25.60
2023-08-12T14:49:43.654Z,25.78
2023-08-12T14:51:58.573Z,25.78
2023-08-12T14:52:17.215Z,25.62
2023-08-12T14:54:43.779Z,25.50
2023-08-12T14:56:58.580Z,25.50
2023-08-12T14:57:10.327Z,25.54
2023-08-12T14:59:36.981Z,25.43
2023-08-12T15:01:58.514Z,25.43
2023-08-12T15:02:03.450Z,25.56
2023-08-12T15:04:29.965Z,25.50
2023-08-12T15:06:56.649Z,25.32
2023-08-12T15:06:58.525Z,25.32
2023-08-12T15:09:23.121Z,25.67
2023-08-12T15:11:49.490Z,25.55
2023-08-12T15:11:58.528Z,25.55
2023-08-12T15:14:16.075Z,25.62
2023-08-12T15:16:42.532Z,25.65
2023-08-12T15:16:58.546Z,25.65
2023-08-12T15:19:09.068Z,25.84
2023-08-12T15:21:35.561Z,25.58
2023-08-12T15:21:58.561Z,25.58
2023-08-12T15:24:02.076Z,25.73
2023-08-12T15:26:29.771Z,25.96
2023-08-12T15:26:58.538Z,25.96
2023-08-12T15:28:57.424Z,25.94
2023-08-12T15:31:23.779Z,26.23
2023-08-12T15:31:58.526Z,26.23
2023-08-12T15:33:50.237Z,26.08
2023-08-12T15:36:16.635Z,26.40
2023-08-12T15:36:58.542Z,26.40
2023-08-12T15:38:43.216Z,26.30
2023-08-12T15:41:17.233Z,25.77
2023-08-12T15:41:58.527Z,25.77
2023-08-12T15:43:44.369Z,26.00
2023-08-12T15:46:10.818Z,25.66
2023-08-12T15:46:58.549Z,25.66
2023-08-12T15:48:37.479Z,25.22
2023-08-12T15:51:04.119Z,25.17
2023-08-12T15:51:58.525Z,25.17
2023-08-12T15:53:30.654Z,24.94
2023-08-12T15:55:57.158Z,25.29
2023-08-12T15:56:58.531Z,25.29
2023-08-12T15:58:25.248Z,25.26
2023-08-12T16:00:52.992Z,24.80
2023-08-12T16:01:58.594Z,24.80
2023-08-12T16:03:20.783Z,25.12
2023-08-12T16:05:48.253Z,24.49
2023-08-12T16:06:58.634Z,24.49
2023-08-12T16:08:14.757Z,24.76
2023-08-12T16:10:41.207Z,24.73
2023-08-12T16:11:58.579Z,24.73
2023-08-12T16:13:07.823Z,24.54
2023-08-12T16:15:34.320Z,24.56
2023-08-12T16:16:58.567Z,24.56
2023-08-12T16:18:00.868Z,24.22
2023-08-12T16:20:27.328Z,24.00
2023-08-12T16:21:58.553Z,24.00
2023-08-12T16:22:53.822Z,24.02
2023-08-12T16:25:20.255Z,23.89
2023-08-12T16:26:58.539Z,23.89
2023-08-12T16:27:46.618Z,23.98
2023-08-12T16:30:13.626Z,23.94
2023-08-12T16:31:58.573Z,23.94
2023-08-12T16:32:40.131Z,24.22
2023-08-12T16:35:06.976Z,24.06
2023-08-12T16:37:19.056Z,24.06
2023-08-12T16:37:33.446Z,24.23
2023-08-12T16:39:59.957Z,24.23
2023-08-12T16:41:58.519Z,24.23
2023-08-12T16:42:26.366Z,24.44
2023-08-12T16:44:52.786Z,24.59
2023-08-12T16:46:58.537Z,24.59
2023-08-12T16:47:19.368Z,24.73
2023-08-12T16:49:45.763Z,24.67
2023-08-12T16:51:58.523Z,24.67
2023-08-12T16:52:13.709Z,24.58
2023-08-12T16:54:40.752Z,24.28
2023-08-12T16:56:58.567Z,24.28
2023-08-12T16:57:12.463Z,24.05
2023-08-12T16:59:38.892Z,23.95
2023-08-12T17:01:58.552Z,23.95
2023-08-12T17:02:05.463Z,23.85
2023-08-12T17:04:31.864Z,23.77
2023-08-12T17:06:58.773Z,23.61
2023-08-12T17:06:58.990Z,23.61
2023-08-12T17:09:25.275Z,23.47
2023-08-12T17:11:51.750Z,23.49
2023-08-12T17:11:58.607Z,23.49
2023-08-12T17:14:18.368Z,23.60
2023-08-12T17:16:44.897Z,23.57
2023-08-12T17:16:58.783Z,23.57
2023-08-12T17:19:11.306Z,23.59
2023-08-12T17:21:37.975Z,23.69
2023-08-12T17:21:58.548Z,23.69
2023-08-12T17:24:04.886Z,23.67
2023-08-12T17:26:31.353Z,23.75
2023-08-12T17:26:58.533Z,23.75
2023-08-12T17:29:00.125Z,23.73
2023-08-12T17:31:26.562Z,23.64
2023-08-12T17:31:58.528Z,23.64
2023-08-12T17:33:53.013Z,23.55
2023-08-12T17:36:19.499Z,23.12
2023-08-12T17:36:58.544Z,23.12
2023-08-12T17:38:46.084Z,23.36
2023-08-12T17:41:12.535Z,23.44
2023-08-12T17:41:58.542Z,23.44
2023-08-12T17:43:39.475Z,23.50
2023-08-12T17:46:07.317Z,23.49
2023-08-12T17:46:58.540Z,23.49
2023-08-12T17:48:34.186Z,23.49
2023-08-12T17:51:00.940Z,23.55
2023-08-12T17:51:58.604Z,23.55
2023-08-12T17:53:27.361Z,23.36
2023-08-12T17:55:53.892Z,23.64
2023-08-12T17:56:58.552Z,23.64
2023-08-12T17:58:20.306Z,23.64
2023-08-12T18:00:47.136Z,23.56
2023-08-12T18:01:58.533Z,23.56
2023-08-12T18:03:13.711Z,23.14
2023-08-12T18:05:40.323Z,23.35
2023-08-12T18:06:58.535Z,23.35
2023-08-12T18:08:07.165Z,22.97
2023-08-12T18:10:33.598Z,22.15
2023-08-12T18:11:58.547Z,22.15
2023-08-12T18:13:00.113Z,22.80
2023-08-12T18:15:26.557Z,22.85
2023-08-12T18:16:58.727Z,22.85
2023-08-12T18:17:53.312Z,22.43
2023-08-12T18:20:20.174Z,22.60
2023-08-12T18:21:58.556Z,22.60
2023-08-12T18:22:47.109Z,22.22
2023-08-12T18:25:16.095Z,22.43
2023-08-12T18:26:58.528Z,22.43
2023-08-12T18:27:42.438Z,22.28
2023-08-12T18:30:09.478Z,22.14
2023-08-12T18:31:58.563Z,22.14
2023-08-12T18:32:35.985Z,22.00
2023-08-12T18:35:03.742Z,21.29
2023-08-12T18:36:58.537Z,21.29
2023-08-12T18:37:30.429Z,20.51
2023-08-12T18:39:57.076Z,21.23
2023-08-12T18:42:13.521Z,21.23
2023-08-12T18:42:36.983Z,21.44
2023-08-12T18:45:04.680Z,20.83
2023-08-12T18:46:58.544Z,20.83
2023-08-12T18:47:32.352Z,21.14
2023-08-12T18:50:01.350Z,21.06
2023-08-12T18:51:58.567Z,21.06
2023-08-12T18:52:27.733Z,20.91
2023-08-12T18:54:54.140Z,20.78
2023-08-12T18:56:58.561Z,20.78
2023-08-12T18:57:20.680Z,20.62
2023-08-12T18:59:47.066Z,20.48
2023-08-12T19:01:58.562Z,20.48
2023-08-12T19:02:13.664Z,20.11
2023-08-12T19:04:40.305Z,20.32
2023-08-12T19:06:58.609Z,20.32
2023-08-12T19:07:06.680Z,20.19
2023-08-12T19:09:33.142Z,19.94
2023-08-12T19:11:59.837Z,19.98
2023-08-12T19:11:59.977Z,19.98
2023-08-12T19:14:26.299Z,19.81
2023-08-12T19:16:52.781Z,19.75
2023-08-12T19:16:59.724Z,19.75
2023-08-12T19:19:19.208Z,19.80
2023-08-12T19:21:48.682Z,19.57
2023-08-12T19:21:58.544Z,19.57
2023-08-12T19:24:15.110Z,19.32
2023-08-12T19:26:41.497Z,19.35
2023-08-12T19:26:58.564Z,19.35
2023-08-12T19:29:08.133Z,19.04
2023-08-12T19:31:34.531Z,19.37
2023-08-12T19:31:58.568Z,19.37
2023-08-12T19:34:03.381Z,19.29
2023-08-12T19:36:29.741Z,19.21
2023-08-12T19:36:58.567Z,19.21
2023-08-12T19:38:56.172Z,19.13
2023-08-12T19:41:22.649Z,19.07
2023-08-12T19:41:58.562Z,19.07
2023-08-12T19:43:49.097Z,18.98
2023-08-12T19:46:15.592Z,18.93
2023-08-12T19:46:58.629Z,18.93
2023-08-12T19:48:42.138Z,18.89
2023-08-12T19:51:08.530Z,18.86
2023-08-12T19:51:58.586Z,18.86
2023-08-12T19:53:35.056Z,18.47
2023-08-12T19:56:01.612Z,18.76
2023-08-12T19:56:58.558Z,18.76
2023-08-12T19:58:28.008Z,18.70
2023-08-12T20:00:55.635Z,18.64
2023-08-12T20:01:58.566Z,18.64
2023-08-12T20:03:22.654Z,18.56
2023-08-12T20:05:49.012Z,18.59
2023-08-12T20:06:58.570Z,18.59
2023-08-12T20:08:15.432Z,17.53
2023-08-12T20:10:41.842Z,17.91
2023-08-12T20:11:58.570Z,17.91
2023-08-12T20:13:08.389Z,18.33
2023-08-12T20:15:34.791Z,18.10
2023-08-12T20:16:58.725Z,18.10
2023-08-12T20:18:01.402Z,18.05
2023-08-12T20:20:28.059Z,17.95
2023-08-12T20:21:58.577Z,17.95
2023-08-12T20:23:05.458Z,17.43
2023-08-12T20:25:34.295Z,18.34
2023-08-12T20:26:58.566Z,18.34
2023-08-12T20:28:00.748Z,18.19
2023-08-12T20:30:27.527Z,18.29
2023-08-12T20:31:58.579Z,18.29
2023-08-12T20:32:55.505Z,18.22
2023-08-12T20:35:22.380Z,17.60
2023-08-12T20:36:58.573Z,17.60
2023-08-12T20:37:48.919Z,18.08
2023-08-12T20:40:15.445Z,18.17
2023-08-12T20:41:58.581Z,18.17
2023-08-12T20:42:41.825Z,17.64
2023-08-12T20:45:08.843Z,17.72
2023-08-12T20:46:58.578Z,17.72
2023-08-12T20:47:35.543Z,18.04
2023-08-12T20:50:02.617Z,17.94
2023-08-12T20:51:58.582Z,17.94
2023-08-12T20:52:29.178Z,17.75
2023-08-12T20:54:55.650Z,17.08
2023-08-12T20:56:58.584Z,17.08
2023-08-12T20:57:22.232Z,17.66
2023-08-12T20:59:48.689Z,17.46
2023-08-12T21:01:58.615Z,17.46
2023-08-12T21:02:16.764Z,17.44
2023-08-12T21:04:43.269Z,17.59
2023-08-12T21:06:58.581Z,17.59
2023-08-12T21:07:09.630Z,17.47
2023-08-12T21:09:36.806Z,17.61
2023-08-12T21:11:58.569Z,17.61
2023-08-12T21:12:04.573Z,17.64
2023-08-12T21:14:30.974Z,17.61